createdAt,value
2018-09-26T00:02:31.631Z,103090.75
2018-09-26T00:04:59.667Z,103084.31
2018-09-26T00:07:27.672Z,103083.94
2018-09-26T00:09:55.699Z,103075.73
2018-09-26T00:12:24.607Z,103079.23
2018-09-26T00:14:52.620Z,103079.69
2018-09-26T00:17:20.638Z,103076.69
2018-09-26T00:19:48.639Z,103074.13
2018-09-26T00:22:16.659Z,103064.59
2018-09-26T00:24:45.108Z,103058.55
2018-09-26T00:27:13.132Z,103058.98
2018-09-26T00:29:41.140Z,103069.39
2018-09-26T00:32:09.688Z,103065.05
2018-09-26T00:34:37.701Z,103058.16
2018-09-26T00:37:05.707Z,103059.02
2018-09-26T00:39:33.879Z,103062.05
2018-09-26T00:42:01.884Z,103052.52
2018-09-26T00:44:29.885Z,103046.03
2018-09-26T00:46:57.888Z,103040.37
2018-09-26T00:49:25.972Z,103033.41
2018-09-26T00:51:54.091Z,103022.13
2018-09-26T00:54:22.255Z,103017.33
2018-09-26T00:56:50.303Z,103019.47
2018-09-26T00:59:18.352Z,103015.50
2018-09-26T01:01:46.371Z,103013.77
2018-09-26T01:04:14.376Z,103013.31
2018-09-26T01:06:42.400Z,103015.47
2018-09-26T01:09:11.687Z,103019.74
2018-09-26T01:11:39.692Z,103009.34
2018-09-26T01:14:07.784Z,103013.24
2018-09-26T01:16:35.811Z,103018.01
2018-09-26T01:19:04.848Z,103021.11
2018-09-26T01:21:32.855Z,103019.86
2018-09-26T01:24:01.012Z,103019.86
2018-09-26T01:26:29.019Z,103019.84
2018-09-26T01:28:57.037Z,103020.30
2018-09-26T01:31:25.047Z,103012.04
2018-09-26T01:33:53.059Z,103002.48
2018-09-26T01:36:21.104Z,103002.02
2018-09-26T01:38:49.268Z,102993.35
2018-09-26T01:41:17.347Z,102999.02
2018-09-26T01:43:45.295Z,102997.25
2018-09-26T01:46:13.435Z,103000.25
2018-09-26T01:48:41.447Z,102979.89
2018-09-26T01:51:09.583Z,102990.62
2018-09-26T01:53:37.940Z,103001.81
2018-09-26T01:56:06.029Z,102986.19
2018-09-26T01:58:34.100Z,102969.26
2018-09-26T02:01:02.463Z,102972.69
2018-09-26T02:03:31.369Z,102970.92
2018-09-26T02:05:59.388Z,102970.45
2018-09-26T02:08:27.599Z,102969.98
2018-09-26T02:10:55.670Z,102972.59
2018-09-26T02:13:30.387Z,102972.59
2018-09-26T02:15:58.581Z,102973.02
2018-09-26T02:18:26.643Z,102969.19
2018-09-26T02:20:54.679Z,102967.89
2018-09-26T02:23:23.251Z,102971.32
2018-09-26T02:25:51.486Z,102964.86
2018-09-26T02:28:19.617Z,102967.42
2018-09-26T02:30:47.935Z,102962.66
2018-09-26T02:33:15.953Z,102960.85
2018-09-26T02:35:43.974Z,102956.95
2018-09-26T02:38:12.115Z,102953.05
2018-09-26T02:40:40.140Z,102955.19
2018-09-26T02:43:08.161Z,102951.68
2018-09-26T02:45:37.183Z,102936.08
2018-09-26T02:48:05.344Z,102948.17
2018-09-26T02:50:33.359Z,102955.18
2018-09-26T02:53:01.364Z,102944.75
2018-09-26T02:55:29.399Z,102938.21
2018-09-26T02:57:57.599Z,102957.20
2018-09-26T03:00:25.597Z,102947.59
2018-09-26T03:02:53.748Z,102961.86
2018-09-26T03:05:22.135Z,102965.73
2018-09-26T03:07:50.201Z,102964.00
2018-09-26T03:10:18.311Z,102964.83
2018-09-26T03:12:46.359Z,102967.86
2018-09-26T03:15:14.388Z,102961.00
2018-09-26T03:17:42.573Z,102960.12
2018-09-26T03:20:10.853Z,102947.98
2018-09-26T03:22:38.863Z,102944.48
2018-09-26T03:25:06.896Z,102947.16
2018-09-26T03:27:34.913Z,102932.86
2018-09-26T03:30:02.937Z,102932.82
2018-09-26T03:32:31.211Z,102929.31
2018-09-26T03:34:59.297Z,102931.92
2018-09-26T03:37:27.351Z,102938.45
2018-09-26T03:39:55.367Z,102937.55
2018-09-26T03:42:23.803Z,102935.86
2018-09-26T03:44:51.871Z,102937.66
2018-09-26T03:47:19.967Z,102927.66
2018-09-26T03:49:47.985Z,102927.19
2018-09-26T03:52:16.318Z,102934.05
2018-09-26T03:54:44.354Z,102929.31
2018-09-26T03:57:12.374Z,102929.71
2018-09-26T03:59:40.603Z,102931.02
2018-09-26T04:02:08.675Z,102929.75
2018-09-26T04:04:36.695Z,102932.35
2018-09-26T04:07:05.768Z,102923.28
2018-09-26T04:09:34.120Z,102923.68
2018-09-26T04:12:02.191Z,102908.55
2018-09-26T04:14:30.196Z,102898.15
2018-09-26T04:16:58.584Z,102895.63
2018-09-26T04:19:26.701Z,102894.36
2018-09-26T04:21:54.717Z,102885.34
2018-09-26T04:24:23.782Z,102882.70
2018-09-26T04:26:52.302Z,102885.73
2018-09-26T04:29:20.057Z,102887.42
2018-09-26T04:31:48.944Z,102882.19
2018-09-26T04:34:16.967Z,102886.95
2018-09-26T04:36:44.995Z,102882.62
2018-09-26T04:39:13.719Z,102886.45
2018-09-26T04:41:41.979Z,102894.20
2018-09-26T04:44:10.255Z,102886.17
2018-09-26T04:46:38.284Z,102887.07
2018-09-26T04:49:06.637Z,102877.97
2018-09-26T04:51:35.273Z,102878.95
2018-09-26T04:54:03.412Z,102880.66
2018-09-26T04:56:31.623Z,102885.38
2018-09-26T04:58:59.838Z,102884.95
2018-09-26T05:01:27.899Z,102887.50
2018-09-26T05:03:56.151Z,102886.29
2018-09-26T05:06:24.167Z,102890.62
2018-09-26T05:08:52.429Z,102896.18
2018-09-26T05:11:20.491Z,102900.43
2018-09-26T05:13:48.518Z,102892.98
2018-09-26T05:16:16.533Z,102891.21
2018-09-26T05:18:44.572Z,102885.14
2018-09-26T05:21:12.803Z,102887.78
2018-09-26T05:23:40.820Z,102873.83
2018-09-26T05:26:08.823Z,102869.52
2018-09-26T05:28:37.335Z,102860.03
2018-09-26T05:31:05.370Z,102861.50
2018-09-26T05:33:33.432Z,102867.52
2018-09-26T05:36:01.448Z,102874.37
2018-09-26T05:38:29.582Z,102877.37
2018-09-26T05:40:57.612Z,102873.00
2018-09-26T05:43:25.717Z,102880.37
2018-09-26T05:45:53.736Z,102887.34
2018-09-26T05:48:21.879Z,102885.18
2018-09-26T05:50:49.938Z,102883.45
2018-09-26T05:53:17.955Z,102879.11
2018-09-26T05:55:45.987Z,102877.80
2018-09-26T05:58:14.021Z,102871.30
2018-09-26T06:00:42.044Z,102861.72
2018-09-26T06:03:10.220Z,102849.45
2018-09-26T06:05:38.236Z,102842.05
2018-09-26T06:08:06.328Z,102842.52
2018-09-26T06:10:34.787Z,102851.66
2018-09-26T06:13:02.888Z,102858.04
2018-09-26T06:15:30.839Z,102857.14
2018-09-26T06:17:59.104Z,102852.75
2018-09-26T06:20:27.123Z,102847.42
2018-09-26T06:22:55.183Z,102850.02
2018-09-26T06:25:23.246Z,102849.06
2018-09-26T06:27:51.613Z,102855.91
2018-09-26T06:30:19.643Z,102851.53
2018-09-26T06:32:47.691Z,102846.63
2018-09-26T06:35:15.820Z,102843.92
2018-09-26T06:37:44.480Z,102839.55
2018-09-26T06:40:12.580Z,102842.02
2018-09-26T06:42:41.036Z,102842.78
2018-09-26T06:45:09.531Z,102849.59
2018-09-26T06:47:37.627Z,102840.77
2018-09-26T06:50:05.591Z,102833.77
2018-09-26T06:52:33.640Z,102833.20
2018-09-26T06:55:01.644Z,102833.15
2018-09-26T06:57:29.839Z,102838.21
2018-09-26T06:59:58.095Z,102838.64
2018-09-26T07:02:26.103Z,102835.88
2018-09-26T07:04:54.124Z,102833.55
2018-09-26T07:07:22.199Z,102830.94
2018-09-26T07:09:50.208Z,102832.09
2018-09-26T07:12:18.436Z,102829.83
2018-09-26T07:14:46.467Z,102829.33
2018-09-26T07:17:14.564Z,102835.59
2018-09-26T07:19:42.599Z,102825.88
2018-09-26T07:22:10.651Z,102822.77
2018-09-26T07:24:38.660Z,102827.83
2018-09-26T07:27:06.871Z,102831.91
2018-09-26T07:29:34.927Z,102830.45
2018-09-26T07:32:03.002Z,102842.88
2018-09-26T07:34:38.520Z,102837.00
2018-09-26T07:37:07.379Z,102835.91
2018-09-26T07:39:36.280Z,102831.77
2018-09-26T07:42:06.139Z,102840.66
2018-09-26T07:44:34.191Z,102845.70
2018-09-26T07:47:02.643Z,102842.42
2018-09-26T07:49:30.692Z,102836.59
2018-09-26T07:51:58.703Z,102852.81
2018-09-26T07:54:26.747Z,102851.66
2018-09-26T07:56:54.771Z,102846.23
2018-09-26T07:59:23.125Z,102855.52
2018-09-26T08:01:51.176Z,102856.25
2018-09-26T08:04:19.191Z,102853.51
2018-09-26T08:06:47.340Z,102863.74
2018-09-26T08:09:15.435Z,102855.66
2018-09-26T08:11:43.514Z,102861.55
2018-09-26T08:14:11.520Z,102874.73
2018-09-26T08:16:39.617Z,102878.76
2018-09-26T08:19:07.675Z,102878.08
2018-09-26T08:21:35.695Z,102879.11
2018-09-26T08:24:03.916Z,102887.48
2018-09-26T08:26:31.763Z,102889.45
2018-09-26T08:28:59.779Z,102884.70
2018-09-26T08:31:27.820Z,102870.61
2018-09-26T08:33:55.839Z,102864.57
2018-09-26T08:36:23.959Z,102873.87
2018-09-26T08:38:52.053Z,102871.98
2018-09-26T08:41:20.079Z,102872.58
2018-09-26T08:43:48.111Z,102877.11
2018-09-26T08:46:16.127Z,102869.26
2018-09-26T08:48:44.772Z,102871.14
2018-09-26T08:51:12.919Z,102876.22
2018-09-26T08:53:40.959Z,102874.20
2018-09-26T08:56:08.966Z,102873.02
2018-09-26T08:58:36.983Z,102869.48
2018-09-26T09:01:09.491Z,102878.41
2018-09-26T09:03:37.503Z,102879.59
2018-09-26T09:06:05.639Z,102884.56
2018-09-26T09:08:34.008Z,102884.59
2018-09-26T09:11:02.093Z,102886.56
2018-09-26T09:13:30.149Z,102888.95
2018-09-26T09:15:58.233Z,102887.22
2018-09-26T09:18:26.300Z,102884.28
2018-09-26T09:20:54.316Z,102883.00
2018-09-26T09:23:22.450Z,102884.05
2018-09-26T09:25:50.471Z,102881.29
2018-09-26T09:28:18.491Z,102881.63
2018-09-26T09:30:46.527Z,102882.34
2018-09-26T09:33:14.562Z,102882.73
2018-09-26T09:35:42.787Z,102875.13
2018-09-26T09:38:10.873Z,102873.63
2018-09-26T09:40:38.846Z,102881.17
2018-09-26T09:43:07.295Z,102880.91
2018-09-26T09:45:35.320Z,102873.55
2018-09-26T09:48:03.352Z,102871.27
2018-09-26T09:50:31.540Z,102865.34
2018-09-26T09:52:59.579Z,102860.83
2018-09-26T09:55:27.622Z,102852.68
2018-09-26T09:57:55.911Z,102849.27
2018-09-26T10:01:27.400Z,102848.66
2018-09-26T10:03:56.705Z,102842.00
2018-09-26T10:06:24.760Z,102838.81
2018-09-26T10:08:53.920Z,102838.66
2018-09-26T10:11:21.856Z,102841.13
2018-09-26T10:13:49.904Z,102850.37
2018-09-26T10:16:17.943Z,102846.27
2018-09-26T10:18:46.220Z,102844.82
2018-09-26T10:21:14.400Z,102848.84
2018-09-26T10:23:42.422Z,102838.69
2018-09-26T10:26:10.727Z,102840.31
2018-09-26T10:28:38.744Z,102840.36
2018-09-26T10:31:06.765Z,102840.97
2018-09-26T10:33:34.788Z,102837.36
2018-09-26T10:36:02.808Z,102830.84
2018-09-26T10:38:30.820Z,102828.77
2018-09-26T10:46:40.027Z,102816.39
2018-09-26T10:49:08.390Z,102810.40
2018-09-26T10:51:36.465Z,102816.60
2018-09-26T10:54:04.963Z,102804.36
2018-09-26T10:56:33.059Z,102801.70
2018-09-26T10:59:01.547Z,102805.59
2018-09-26T11:01:29.640Z,102801.29
2018-09-26T11:03:57.668Z,102810.84
2018-09-26T11:06:25.695Z,102808.98
2018-09-26T11:08:53.710Z,102802.98
2018-09-26T11:11:21.904Z,102797.48
2018-09-26T11:13:49.943Z,102791.02
2018-09-26T11:16:18.085Z,102789.77
2018-09-26T11:18:46.136Z,102782.36
2018-09-26T11:21:14.201Z,102794.27
2018-09-26T11:23:42.212Z,102791.81
2018-09-26T11:26:10.344Z,102782.17
2018-09-26T11:28:38.273Z,102780.85
2018-09-26T11:31:06.308Z,102783.70
2018-09-26T11:33:34.586Z,102786.52
2018-09-26T11:36:02.601Z,102774.45
2018-09-26T11:38:30.612Z,102772.73
2018-09-26T11:40:58.638Z,102778.53
2018-09-26T11:43:26.660Z,102789.28
2018-09-26T11:45:54.872Z,102769.56
2018-09-26T11:48:23.074Z,102772.09
2018-09-26T11:50:51.108Z,102777.12
2018-09-26T11:53:19.154Z,102781.55
2018-09-26T11:55:47.213Z,102772.34
2018-09-26T11:58:16.293Z,102768.59
2018-09-26T12:00:44.288Z,102767.72
2018-09-26T12:03:13.201Z,102761.52
2018-09-26T12:05:41.212Z,102757.92
2018-09-26T12:08:09.289Z,102759.38
2018-09-26T12:10:37.299Z,102756.02
2018-09-26T12:13:05.336Z,102750.91
2018-09-26T12:15:33.367Z,102747.02
2018-09-26T12:18:01.400Z,102744.81
2018-09-26T12:20:29.423Z,102742.05
2018-09-26T12:22:57.448Z,102751.24
2018-09-26T12:25:25.559Z,102731.80
2018-09-26T12:27:53.711Z,102726.27
2018-09-26T12:30:21.733Z,102726.30
2018-09-26T12:32:50.060Z,102718.00
2018-09-26T12:35:18.111Z,102711.62
2018-09-26T12:37:46.128Z,102712.55
2018-09-26T12:40:14.221Z,102704.31
2018-09-26T12:42:42.277Z,102702.93
2018-09-26T12:45:10.260Z,102697.54
2018-09-26T12:47:38.287Z,102696.89
2018-09-26T12:50:06.564Z,102696.36
2018-09-26T12:52:34.608Z,102696.21
2018-09-26T12:55:02.740Z,102691.20
2018-09-26T12:57:30.763Z,102691.77
2018-09-26T12:59:58.808Z,102687.02
2018-09-26T13:02:26.937Z,102689.61
2018-09-26T13:04:55.092Z,102685.10
2018-09-26T13:07:23.152Z,102679.66
2018-09-26T13:09:51.183Z,102675.70
2018-09-26T13:12:19.270Z,102665.88
2018-09-26T13:14:47.264Z,102680.27
2018-09-26T13:17:15.293Z,102682.86
2018-09-26T13:19:43.316Z,102680.47
2018-09-26T13:22:12.010Z,102683.12
2018-09-26T13:24:40.068Z,102678.70
2018-09-26T13:27:08.117Z,102674.36
2018-09-26T13:29:36.208Z,102669.93
2018-09-26T13:32:04.994Z,102669.34
2018-09-26T13:34:32.999Z,102670.42
2018-09-26T13:37:01.174Z,102667.23
2018-09-26T13:39:29.359Z,102672.94
2018-09-26T13:41:57.368Z,102667.17
2018-09-26T13:44:25.526Z,102659.88
2018-09-26T13:46:53.617Z,102671.53
2018-09-26T13:49:21.555Z,102668.95
2018-09-26T13:51:49.580Z,102666.19
2018-09-26T13:54:18.169Z,102662.98
2018-09-26T13:56:46.164Z,102653.56
2018-09-26T13:59:14.279Z,102644.35
2018-09-26T14:01:42.792Z,102642.31
2018-09-26T14:04:10.827Z,102646.41
2018-09-26T14:06:38.846Z,102651.37
2018-09-26T14:09:07.230Z,102644.45
2018-09-26T14:11:35.272Z,102650.04
2018-09-26T14:14:03.295Z,102644.25
2018-09-26T14:16:31.548Z,102639.76
2018-09-26T14:18:59.572Z,102637.31
2018-09-26T14:21:27.636Z,102629.66
2018-09-26T14:23:56.044Z,102626.36
2018-09-26T14:26:24.177Z,102623.71
2018-09-26T14:28:52.108Z,102618.03
2018-09-26T14:31:20.755Z,102615.93
2018-09-26T14:33:48.816Z,102618.20
2018-09-26T14:36:16.923Z,102616.14
2018-09-26T14:38:44.949Z,102620.94
2018-09-26T14:41:12.960Z,102616.34
2018-09-26T14:43:41.001Z,102618.91
2018-09-26T14:46:09.144Z,102614.34
2018-09-26T14:48:37.175Z,102603.86
2018-09-26T14:51:05.553Z,102600.61
2018-09-26T14:53:33.807Z,102604.19
2018-09-26T14:56:01.841Z,102609.73
2018-09-26T14:58:29.876Z,102609.61
2018-09-26T15:00:57.884Z,102606.13
2018-09-26T15:03:25.919Z,102603.02
2018-09-26T15:05:54.139Z,102594.44
2018-09-26T15:08:22.268Z,102600.73
2018-09-26T15:10:50.224Z,102599.30
2018-09-26T15:13:18.252Z,102587.08
2018-09-26T15:15:46.286Z,102582.70
2018-09-26T15:18:14.325Z,102590.16
2018-09-26T15:20:42.632Z,102582.77
2018-09-26T15:23:10.700Z,102584.56
2018-09-26T15:25:38.728Z,102577.20
2018-09-26T15:28:06.857Z,102581.77
2018-09-26T15:30:34.831Z,102584.15
2018-09-26T15:33:02.852Z,102584.98
2018-09-26T15:35:30.956Z,102589.53
2018-09-26T15:37:59.100Z,102583.59
2018-09-26T15:40:27.187Z,102584.77
2018-09-26T15:42:55.187Z,102589.56
2018-09-26T15:45:23.209Z,102585.98
2018-09-26T15:47:51.231Z,102583.08
2018-09-26T15:50:19.501Z,102587.01
2018-09-26T15:52:47.543Z,102591.03
2018-09-26T15:55:15.613Z,102584.91
2018-09-26T15:57:43.629Z,102599.08
2018-09-26T16:00:11.671Z,102592.16
2018-09-26T16:02:39.804Z,102589.98
2018-09-26T16:05:18.625Z,102585.50
2018-09-26T16:07:46.651Z,102578.30
2018-09-26T16:10:14.792Z,102575.72
2018-09-26T16:12:42.846Z,102573.38
2018-09-26T16:15:10.872Z,102574.66
2018-09-26T16:17:38.884Z,102581.11
2018-09-26T16:20:07.083Z,102578.19
2018-09-26T16:22:35.120Z,102579.35
2018-09-26T16:25:03.323Z,102579.30
2018-09-26T16:27:31.572Z,102580.70
2018-09-26T16:29:59.601Z,102576.22
2018-09-26T16:32:27.630Z,102582.27
2018-09-26T16:34:55.660Z,102583.05
2018-09-26T16:37:23.683Z,102590.92
2018-09-26T16:39:51.721Z,102583.86
2018-09-26T16:42:20.045Z,102584.16
2018-09-26T16:44:48.053Z,102577.49
2018-09-26T16:47:16.104Z,102579.22
2018-09-26T16:49:44.107Z,102581.41
2018-09-26T16:52:12.414Z,102577.39
2018-09-26T16:54:40.656Z,102580.32
2018-09-26T16:57:08.683Z,102576.85
2018-09-26T16:59:36.799Z,102579.97
2018-09-26T17:02:05.821Z,102576.91
2018-09-26T17:04:33.853Z,102580.47
2018-09-26T17:07:01.946Z,102584.08
2018-09-26T17:09:30.288Z,102577.48
2018-09-26T17:11:58.359Z,102581.66
2018-09-26T17:14:26.446Z,102585.80
2018-09-26T17:16:54.528Z,102577.91
2018-09-26T17:19:22.796Z,102584.66
2018-09-26T17:21:50.821Z,102587.01
2018-09-26T17:24:18.896Z,102590.53
2018-09-26T17:26:46.872Z,102600.80
2018-09-26T17:29:14.920Z,102599.20
2018-09-26T17:31:43.047Z,102596.77
2018-09-26T17:34:11.211Z,102603.64
2018-09-26T17:36:39.379Z,102609.66
2018-09-26T17:39:08.109Z,102609.22
2018-09-26T17:41:36.132Z,102611.17
2018-09-26T17:44:04.762Z,102621.01
2018-09-26T17:46:33.401Z,102614.98
2018-09-26T17:49:01.424Z,102620.42
2018-09-26T17:51:29.496Z,102616.17
2018-09-26T17:53:57.629Z,102617.59
2018-09-26T17:56:25.792Z,102620.05
2018-09-26T17:58:54.344Z,102624.67
2018-09-26T18:01:22.402Z,102621.73
2018-09-26T18:03:50.588Z,102614.78
2018-09-26T18:06:19.126Z,102612.14
2018-09-26T18:08:47.162Z,102609.01
2018-09-26T18:11:15.219Z,102608.75
2018-09-26T18:13:43.244Z,102606.57
2018-09-26T18:16:11.292Z,102605.25
2018-09-26T18:18:39.329Z,102609.67
2018-09-26T18:21:07.356Z,102612.31
2018-09-26T18:23:35.400Z,102613.73
2018-09-26T18:26:03.589Z,102622.86
2018-09-26T18:28:31.779Z,102615.05
2018-09-26T18:30:59.866Z,102618.81
2018-09-26T18:33:27.898Z,102616.34
2018-09-26T18:35:56.596Z,102616.91
2018-09-26T18:38:24.620Z,102621.81
2018-09-26T18:40:52.811Z,102609.75
2018-09-26T18:43:20.866Z,102608.23
2018-09-26T18:45:49.531Z,102605.58
2018-09-26T18:48:17.702Z,102606.86
2018-09-26T18:50:46.365Z,102614.56
2018-09-26T18:53:14.471Z,102615.84
2018-09-26T18:55:42.616Z,102619.90
2018-09-26T18:58:10.631Z,102604.05
2018-09-26T19:00:38.653Z,102606.73
2018-09-26T19:03:06.884Z,102611.89
2018-09-26T19:05:35.361Z,102612.91
2018-09-26T19:08:03.385Z,102611.94
2018-09-26T19:10:32.146Z,102616.94
2018-09-26T19:13:00.166Z,102623.94
2018-09-26T19:15:28.188Z,102629.30
2018-09-26T19:17:56.232Z,102623.36
2018-09-26T19:20:24.373Z,102623.52
2018-09-26T19:22:52.404Z,102628.97
2018-09-26T19:25:20.487Z,102628.39
2018-09-26T19:27:48.507Z,102632.69
2018-09-26T19:30:16.544Z,102626.81
2018-09-26T19:32:44.599Z,102622.83
2018-09-26T19:35:12.654Z,102625.77
2018-09-26T19:37:40.672Z,102630.41
2018-09-26T19:40:09.068Z,102634.36
2018-09-26T19:42:37.136Z,102636.69
2018-09-26T19:45:05.485Z,102637.02
2018-09-26T19:47:33.475Z,102637.28
2018-09-26T19:50:01.508Z,102634.98
2018-09-26T19:52:29.592Z,102627.97
2018-09-26T19:54:57.604Z,102635.69
2018-09-26T19:57:25.624Z,102632.38
2018-09-26T19:59:53.826Z,102638.64
2018-09-26T20:02:21.853Z,102637.05
2018-09-26T20:04:49.915Z,102642.63
2018-09-26T20:07:18.023Z,102642.23
2018-09-26T20:09:46.052Z,102639.38
2018-09-26T20:12:14.088Z,102635.29
2018-09-26T20:14:42.120Z,102641.55
2018-09-26T20:17:10.266Z,102641.18
2018-09-26T20:19:38.339Z,102649.98
2018-09-26T20:22:07.286Z,102647.03
2018-09-26T20:24:35.741Z,102645.98
2018-09-26T20:27:04.697Z,102643.13
2018-09-26T20:29:32.810Z,102638.00
2018-09-26T20:32:00.897Z,102645.03
2018-09-26T20:34:44.395Z,102638.72
2018-09-26T20:37:12.541Z,102638.08
2018-09-26T20:39:40.452Z,102640.88
2018-09-26T20:42:08.501Z,102642.25
2018-09-26T20:44:36.536Z,102634.99
2018-09-26T20:47:07.290Z,102634.73
2018-09-26T20:49:35.312Z,102639.98
2018-09-26T20:52:03.468Z,102636.58
2018-09-26T20:54:31.463Z,102629.64
2018-09-26T20:56:59.786Z,102623.70
2018-09-26T20:59:27.831Z,102627.32
2018-09-26T21:01:55.872Z,102630.86
2018-09-26T21:04:23.911Z,102632.17
2018-09-26T21:06:52.091Z,102622.60
2018-09-26T21:09:20.120Z,102627.95
2018-09-26T21:11:48.231Z,102627.63
2018-09-26T21:14:16.216Z,102624.22
2018-09-26T21:16:44.249Z,102632.23
2018-09-26T21:19:12.287Z,102627.30
2018-09-26T21:21:40.480Z,102616.02
2018-09-26T21:24:08.500Z,102616.24
2018-09-26T21:26:36.523Z,102625.97
2018-09-26T21:29:04.933Z,102625.06
2018-09-26T21:31:33.601Z,102623.34
2018-09-26T21:34:01.623Z,102626.30
2018-09-26T21:36:29.664Z,102628.06
2018-09-26T21:38:57.751Z,102621.90
2018-09-26T21:41:25.722Z,102624.89
2018-09-26T21:43:53.766Z,102619.27
2018-09-26T21:46:21.797Z,102619.81
2018-09-26T21:48:49.831Z,102623.75
2018-09-26T21:51:17.849Z,102628.59
2018-09-26T21:53:45.899Z,102625.60
2018-09-26T21:56:13.920Z,102629.14
2018-09-26T21:58:41.953Z,102630.98
2018-09-26T22:01:16.190Z,102626.27
2018-09-26T22:03:44.217Z,102629.84
2018-09-26T22:06:13.431Z,102630.75
2018-09-26T22:08:41.528Z,102638.62
2018-09-26T22:11:09.720Z,102640.34
2018-09-26T22:13:37.759Z,102638.26
2018-09-26T22:16:05.788Z,102635.77
2018-09-26T22:18:33.821Z,102622.72
2018-09-26T22:21:01.856Z,102622.39
2018-09-26T22:23:29.936Z,102635.69
2018-09-26T22:25:58.066Z,102638.23
2018-09-26T22:28:26.109Z,102644.26
2018-09-26T22:30:54.143Z,102637.70
2018-09-26T22:33:22.343Z,102628.91
2018-09-26T22:35:50.372Z,102636.02
2018-09-26T22:38:18.449Z,102635.77
2018-09-26T22:40:46.581Z,102637.91
2018-09-26T22:43:14.601Z,102635.37
2018-09-26T22:48:17.080Z,102630.33
2018-09-26T22:50:45.103Z,102630.86
2018-09-26T22:53:13.129Z,102626.68
2018-09-26T22:55:41.172Z,102626.31
2018-09-26T22:58:09.286Z,102618.97
2018-09-26T23:00:37.241Z,102611.62
2018-09-26T23:03:05.312Z,102612.94
2018-09-26T23:05:33.347Z,102612.08
2018-09-26T23:08:01.392Z,102617.86
2018-09-26T23:10:29.388Z,102611.38
2018-09-26T23:12:58.040Z,102610.52
2018-09-26T23:15:26.092Z,102612.24
2018-09-26T23:17:54.126Z,102607.82
2018-09-26T23:20:22.161Z,102611.38
2018-09-26T23:22:50.191Z,102609.13
2018-09-26T23:25:18.245Z,102605.59
2018-09-26T23:27:47.149Z,102602.11
2018-09-26T23:30:15.184Z,102604.66
2018-09-26T23:32:43.234Z,102605.52
2018-09-26T23:35:11.257Z,102602.03
2018-09-26T23:37:39.296Z,102595.80
2018-09-26T23:40:07.332Z,102585.16
2018-09-26T23:42:35.364Z,102582.59
2018-09-26T23:45:03.392Z,102573.16
2018-09-26T23:47:31.420Z,102582.34
2018-09-26T23:49:59.451Z,102576.19
2018-09-26T23:52:27.479Z,102577.09
2018-09-26T23:54:55.675Z,102572.63
2018-09-26T23:57:23.720Z,102579.96
2018-09-26T23:59:51.735Z,102572.57
